sensor_id;sensor_type;location;lat;lon;timestamp;P1;durP1;ratioP1;P2;durP2;ratioP2
17436;SDS011;70275;52.198;5.422;2023-06-05T00:00:09;13.52;;;9.07;;
17436;SDS011;70275;52.198;5.422;2023-06-05T00:02:40;11.27;;;9.35;;
17436;SDS011;70275;52.198;5.422;2023-06-05T00:05:09;12.70;;;9.65;;
17436;SDS011;70275;52.198;5.422;2023-06-05T00:07:38;10.60;;;9.15;;
17436;SDS011;70275;52.198;5.422;2023-06-05T00:10:07;10.50;;;8.93;;
17436;SDS011;70275;52.198;5.422;2023-06-05T00:12:41;13.88;;;8.73;;
17436;SDS011;70275;52.198;5.422;2023-06-05T00:15:10;12.10;;;9.80;;
17436;SDS011;70275;52.198;5.422;2023-06-05T00:17:39;15.52;;;10.30;;
17436;SDS011;70275;52.198;5.422;2023-06-05T00:20:10;11.43;;;9.73;;
17436;SDS011;70275;52.198;5.422;2023-06-05T00:22:39;10.32;;;9.25;;
17436;SDS011;70275;52.198;5.422;2023-06-05T00:25:09;13.10;;;9.80;;
17436;SDS011;70275;52.198;5.422;2023-06-05T00:27:41;11.85;;;10.10;;
17436;SDS011;70275;52.198;5.422;2023-06-05T00:30:10;15.20;;;10.07;;
17436;SDS011;70275;52.198;5.422;2023-06-05T00:32:41;14.82;;;11.18;;
17436;SDS011;70275;52.198;5.422;2023-06-05T00:35:10;12.07;;;9.30;;
17436;SDS011;70275;52.198;5.422;2023-06-05T00:37:38;13.82;;;10.20;;
17436;SDS011;70275;52.198;5.422;2023-06-05T00:40:09;13.02;;;10.20;;
17436;SDS011;70275;52.198;5.422;2023-06-05T00:42:40;15.52;;;11.25;;
17436;SDS011;70275;52.198;5.422;2023-06-05T00:45:09;12.25;;;10.65;;
17436;SDS011;70275;52.198;5.422;2023-06-05T00:47:38;12.73;;;11.13;;
17436;SDS011;70275;52.198;5.422;2023-06-05T00:50:08;12.30;;;10.57;;
17436;SDS011;70275;52.198;5.422;2023-06-05T00:52:40;12.85;;;11.55;;
17436;SDS011;70275;52.198;5.422;2023-06-05T00:55:10;13.07;;;10.98;;
17436;SDS011;70275;52.198;5.422;2023-06-05T00:57:42;15.77;;;11.13;;
17436;SDS011;70275;52.198;5.422;2023-06-05T01:00:14;13.52;;;10.50;;
17436;SDS011;70275;52.198;5.422;2023-06-05T01:02:43;15.48;;;10.88;;
17436;SDS011;70275;52.198;5.422;2023-06-05T01:05:13;12.75;;;10.90;;
17436;SDS011;70275;52.198;5.422;2023-06-05T01:07:42;13.18;;;11.23;;
17436;SDS011;70275;52.198;5.422;2023-06-05T01:10:12;15.43;;;11.05;;
17436;SDS011;70275;52.198;5.422;2023-06-05T01:12:46;14.85;;;10.32;;
17436;SDS011;70275;52.198;5.422;2023-06-05T01:15:23;13.85;;;10.80;;
17436;SDS011;70275;52.198;5.422;2023-06-05T01:17:56;16.65;;;11.93;;
17436;SDS011;70275;52.198;5.422;2023-06-05T01:20:33;21.20;;;11.98;;
17436;SDS011;70275;52.198;5.422;2023-06-05T01:23:04;16.13;;;12.88;;
17436;SDS011;70275;52.198;5.422;2023-06-05T01:25:37;14.35;;;11.43;;
17436;SDS011;70275;52.198;5.422;2023-06-05T01:28:08;16.55;;;12.30;;
17436;SDS011;70275;52.198;5.422;2023-06-05T01:30:45;19.35;;;12.38;;
17436;SDS011;70275;52.198;5.422;2023-06-05T01:33:27;14.25;;;12.23;;
17436;SDS011;70275;52.198;5.422;2023-06-05T01:36:06;17.10;;;11.68;;
17436;SDS011;70275;52.198;5.422;2023-06-05T01:38:41;12.18;;;10.82;;
17436;SDS011;70275;52.198;5.422;2023-06-05T01:41:11;17.92;;;12.27;;
17436;SDS011;70275;52.198;5.422;2023-06-05T01:43:42;13.73;;;12.05;;
17436;SDS011;70275;52.198;5.422;2023-06-05T01:46:16;15.75;;;13.77;;
17436;SDS011;70275;52.198;5.422;2023-06-05T01:48:48;15.35;;;13.38;;
17436;SDS011;70275;52.198;5.422;2023-06-05T01:51:19;16.23;;;13.48;;
17436;SDS011;70275;52.198;5.422;2023-06-05T01:53:50;14.57;;;11.60;;
17436;SDS011;70275;52.198;5.422;2023-06-05T01:56:21;15.70;;;12.27;;
17436;SDS011;70275;52.198;5.422;2023-06-05T01:58:50;17.33;;;13.40;;
17436;SDS011;70275;52.198;5.422;2023-06-05T02:01:19;14.07;;;11.85;;
17436;SDS011;70275;52.198;5.422;2023-06-05T02:03:48;17.73;;;12.98;;
17436;SDS011;70275;52.198;5.422;2023-06-05T02:06:18;16.10;;;11.27;;
17436;SDS011;70275;52.198;5.422;2023-06-05T02:08:47;16.33;;;13.25;;
17436;SDS011;70275;52.198;5.422;2023-06-05T02:11:19;15.77;;;12.25;;
17436;SDS011;70275;52.198;5.422;2023-06-05T02:13:48;14.02;;;11.48;;
17436;SDS011;70275;52.198;5.422;2023-06-05T02:16:17;16.45;;;12.27;;
17436;SDS011;70275;52.198;5.422;2023-06-05T02:18:48;13.57;;;12.10;;
17436;SDS011;70275;52.198;5.422;2023-06-05T02:21:17;17.17;;;12.40;;
17436;SDS011;70275;52.198;5.422;2023-06-05T02:23:46;14.70;;;11.73;;
17436;SDS011;70275;52.198;5.422;2023-06-05T02:26:18;14.65;;;11.05;;
17436;SDS011;70275;52.198;5.422;2023-06-05T02:28:47;14.65;;;11.40;;
17436;SDS011;70275;52.198;5.422;2023-06-05T02:31:19;18.85;;;11.50;;
17436;SDS011;70275;52.198;5.422;2023-06-05T02:33:50;16.25;;;11.77;;
17436;SDS011;70275;52.198;5.422;2023-06-05T02:36:20;16.63;;;11.27;;
17436;SDS011;70275;52.198;5.422;2023-06-05T02:38:50;15.60;;;11.35;;
17436;SDS011;70275;52.198;5.422;2023-06-05T02:41:22;15.15;;;11.50;;
17436;SDS011;70275;52.198;5.422;2023-06-05T02:43:51;17.02;;;12.15;;
17436;SDS011;70275;52.198;5.422;2023-06-05T02:46:21;15.75;;;12.23;;
17436;SDS011;70275;52.198;5.422;2023-06-05T02:48:50;16.25;;;11.18;;
17436;SDS011;70275;52.198;5.422;2023-06-05T02:51:19;15.55;;;12.80;;
17436;SDS011;70275;52.198;5.422;2023-06-05T02:53:48;17.45;;;12.30;;
17436;SDS011;70275;52.198;5.422;2023-06-05T02:56:17;16.88;;;11.85;;
17436;SDS011;70275;52.198;5.422;2023-06-05T02:58:49;13.48;;;11.05;;
17436;SDS011;70275;52.198;5.422;2023-06-05T03:01:18;17.58;;;12.25;;
17436;SDS011;70275;52.198;5.422;2023-06-05T03:03:50;15.32;;;11.85;;
17436;SDS011;70275;52.198;5.422;2023-06-05T03:06:22;16.55;;;12.50;;
17436;SDS011;70275;52.198;5.422;2023-06-05T03:08:53;13.35;;;11.80;;
17436;SDS011;70275;52.198;5.422;2023-06-05T03:11:23;15.70;;;12.18;;
17436;SDS011;70275;52.198;5.422;2023-06-05T03:13:54;16.27;;;12.00;;
17436;SDS011;70275;52.198;5.422;2023-06-05T03:16:23;16.65;;;11.45;;
17436;SDS011;70275;52.198;5.422;2023-06-05T03:19:02;14.20;;;11.82;;
17436;SDS011;70275;52.198;5.422;2023-06-05T03:21:31;16.52;;;12.15;;
17436;SDS011;70275;52.198;5.422;2023-06-05T03:24:00;16.00;;;12.30;;
17436;SDS011;70275;52.198;5.422;2023-06-05T03:26:30;16.73;;;11.25;;
17436;SDS011;70275;52.198;5.422;2023-06-05T03:29:03;17.20;;;12.52;;
17436;SDS011;70275;52.198;5.422;2023-06-05T03:31:32;13.60;;;11.27;;
17436;SDS011;70275;52.198;5.422;2023-06-05T03:34:01;16.52;;;12.68;;
17436;SDS011;70275;52.198;5.422;2023-06-05T03:36:31;16.65;;;12.77;;
17436;SDS011;70275;52.198;5.422;2023-06-05T03:39:03;17.98;;;13.02;;
17436;SDS011;70275;52.198;5.422;2023-06-05T03:41:32;15.27;;;12.10;;
17436;SDS011;70275;52.198;5.422;2023-06-05T03:44:03;17.85;;;13.18;;
17436;SDS011;70275;52.198;5.422;2023-06-05T03:46:34;18.90;;;13.70;;
17436;SDS011;70275;52.198;5.422;2023-06-05T03:49:03;18.13;;;12.98;;
17436;SDS011;70275;52.198;5.422;2023-06-05T03:51:34;18.13;;;13.20;;
17436;SDS011;70275;52.198;5.422;2023-06-05T03:54:05;17.73;;;13.48;;
17436;SDS011;70275;52.198;5.422;2023-06-05T03:56:34;17.67;;;12.50;;
17436;SDS011;70275;52.198;5.422;2023-06-05T03:59:10;19.25;;;14.43;;
17436;SDS011;70275;52.198;5.422;2023-06-05T04:01:44;16.13;;;12.90;;
17436;SDS011;70275;52.198;5.422;2023-06-05T04:04:13;17.42;;;13.68;;
17436;SDS011;70275;52.198;5.422;2023-06-05T04:06:42;19.30;;;13.23;;
17436;SDS011;70275;52.198;5.422;2023-06-05T04:09:11;16.95;;;13.18;;
17436;SDS011;70275;52.198;5.422;2023-06-05T04:11:40;18.73;;;14.02;;
17436;SDS011;70275;52.198;5.422;2023-06-05T04:14:15;16.50;;;12.45;;
17436;SDS011;70275;52.198;5.422;2023-06-05T04:16:44;17.90;;;13.25;;
17436;SDS011;70275;52.198;5.422;2023-06-05T04:19:13;14.88;;;12.75;;
17436;SDS011;70275;52.198;5.422;2023-06-05T04:21:42;22.83;;;14.90;;
17436;SDS011;70275;52.198;5.422;2023-06-05T04:24:11;19.38;;;14.27;;
17436;SDS011;70275;52.198;5.422;2023-06-05T04:26:40;20.30;;;14.05;;
17436;SDS011;70275;52.198;5.422;2023-06-05T04:29:10;18.77;;;13.48;;
17436;SDS011;70275;52.198;5.422;2023-06-05T04:31:44;16.33;;;12.75;;
17436;SDS011;70275;52.198;5.422;2023-06-05T04:34:15;19.60;;;13.70;;
17436;SDS011;70275;52.198;5.422;2023-06-05T04:36:44;17.10;;;13.55;;
17436;SDS011;70275;52.198;5.422;2023-06-05T04:39:15;17.60;;;13.52;;
17436;SDS011;70275;52.198;5.422;2023-06-05T04:41:44;15.43;;;13.05;;
17436;SDS011;70275;52.198;5.422;2023-06-05T04:44:14;17.52;;;12.30;;
17436;SDS011;70275;52.198;5.422;2023-06-05T04:46:46;16.67;;;13.77;;
17436;SDS011;70275;52.198;5.422;2023-06-05T04:49:15;19.55;;;14.77;;
17436;SDS011;70275;52.198;5.422;2023-06-05T04:51:45;16.33;;;13.65;;
17436;SDS011;70275;52.198;5.422;2023-06-05T04:54:13;18.00;;;13.10;;
17436;SDS011;70275;52.198;5.422;2023-06-05T04:56:42;19.60;;;14.05;;
17436;SDS011;70275;52.198;5.422;2023-06-05T04:59:14;18.73;;;13.73;;
17436;SDS011;70275;52.198;5.422;2023-06-05T05:01:43;17.27;;;13.30;;
17436;SDS011;70275;52.198;5.422;2023-06-05T05:04:15;20.45;;;14.65;;
17436;SDS011;70275;52.198;5.422;2023-06-05T05:06:44;19.33;;;14.02;;
17436;SDS011;70275;52.198;5.422;2023-06-05T05:09:16;19.75;;;14.68;;
17436;SDS011;70275;52.198;5.422;2023-06-05T05:11:45;17.77;;;13.63;;
17436;SDS011;70275;52.198;5.422;2023-06-05T05:14:14;19.80;;;13.75;;
17436;SDS011;70275;52.198;5.422;2023-06-05T05:16:48;21.80;;;14.73;;
17436;SDS011;70275;52.198;5.422;2023-06-05T05:19:17;18.48;;;15.20;;
17436;SDS011;70275;52.198;5.422;2023-06-05T05:21:47;22.52;;;13.50;;
17436;SDS011;70275;52.198;5.422;2023-06-05T05:24:16;23.45;;;14.68;;
17436;SDS011;70275;52.198;5.422;2023-06-05T05:26:45;18.25;;;13.60;;
17436;SDS011;70275;52.198;5.422;2023-06-05T05:29:14;16.50;;;13.38;;
17436;SDS011;70275;52.198;5.422;2023-06-05T05:31:43;17.67;;;12.30;;
17436;SDS011;70275;52.198;5.422;2023-06-05T05:34:14;16.63;;;12.25;;
17436;SDS011;70275;52.198;5.422;2023-06-05T05:36:43;19.60;;;12.90;;
17436;SDS011;70275;52.198;5.422;2023-06-05T05:39:12;21.27;;;13.43;;
17436;SDS011;70275;52.198;5.422;2023-06-05T05:41:41;15.73;;;11.70;;
17436;SDS011;70275;52.198;5.422;2023-06-05T05:44:10;17.38;;;12.63;;
17436;SDS011;70275;52.198;5.422;2023-06-05T05:46:39;15.88;;;11.95;;
17436;SDS011;70275;52.198;5.422;2023-06-05T05:49:08;15.30;;;12.77;;
17436;SDS011;70275;52.198;5.422;2023-06-05T05:51:40;17.50;;;13.55;;
17436;SDS011;70275;52.198;5.422;2023-06-05T05:54:09;18.52;;;13.73;;
17436;SDS011;70275;52.198;5.422;2023-06-05T05:56:38;15.68;;;12.32;;
17436;SDS011;70275;52.198;5.422;2023-06-05T05:59:07;17.20;;;13.65;;
17436;SDS011;70275;52.198;5.422;2023-06-05T06:01:36;16.90;;;13.80;;
17436;SDS011;70275;52.198;5.422;2023-06-05T06:04:06;20.58;;;13.20;;
17436;SDS011;70275;52.198;5.422;2023-06-05T06:06:35;16.60;;;12.50;;
17436;SDS011;70275;52.198;5.422;2023-06-05T06:09:07;17.75;;;12.88;;
17436;SDS011;70275;52.198;5.422;2023-06-05T06:11:38;16.67;;;12.27;;
17436;SDS011;70275;52.198;5.422;2023-06-05T06:14:08;16.45;;;12.48;;
17436;SDS011;70275;52.198;5.422;2023-06-05T06:16:37;18.90;;;12.80;;
17436;SDS011;70275;52.198;5.422;2023-06-05T06:19:08;17.83;;;12.98;;
17436;SDS011;70275;52.198;5.422;2023-06-05T06:21:39;14.77;;;12.00;;
17436;SDS011;70275;52.198;5.422;2023-06-05T06:24:11;14.45;;;12.18;;
17436;SDS011;70275;52.198;5.422;2023-06-05T06:26:40;13.48;;;11.27;;
17436;SDS011;70275;52.198;5.422;2023-06-05T06:29:09;16.90;;;13.38;;
17436;SDS011;70275;52.198;5.422;2023-06-05T06:31:38;15.73;;;12.38;;
17436;SDS011;70275;52.198;5.422;2023-06-05T06:34:07;17.70;;;12.80;;
17436;SDS011;70275;52.198;5.422;2023-06-05T06:36:36;13.15;;;10.95;;
17436;SDS011;70275;52.198;5.422;2023-06-05T06:39:11;16.08;;;11.98;;
17436;SDS011;70275;52.198;5.422;2023-06-05T06:41:40;14.65;;;11.65;;
17436;SDS011;70275;52.198;5.422;2023-06-05T06:44:09;16.08;;;11.35;;
17436;SDS011;70275;52.198;5.422;2023-06-05T06:46:38;14.75;;;11.68;;
17436;SDS011;70275;52.198;5.422;2023-06-05T06:49:07;14.55;;;11.70;;
17436;SDS011;70275;52.198;5.422;2023-06-05T06:51:37;13.90;;;12.40;;
17436;SDS011;70275;52.198;5.422;2023-06-05T06:54:05;15.43;;;10.75;;
17436;SDS011;70275;52.198;5.422;2023-06-05T06:56:37;12.82;;;11.32;;
17436;SDS011;70275;52.198;5.422;2023-06-05T06:59:10;14.60;;;10.18;;
17436;SDS011;70275;52.198;5.422;2023-06-05T07:01:42;12.52;;;10.60;;
17436;SDS011;70275;52.198;5.422;2023-06-05T07:04:14;14.27;;;11.00;;
17436;SDS011;70275;52.198;5.422;2023-06-05T07:06:45;11.93;;;10.73;;
17436;SDS011;70275;52.198;5.422;2023-06-05T07:09:15;13.73;;;11.05;;
17436;SDS011;70275;52.198;5.422;2023-06-05T07:11:47;13.20;;;9.93;;
17436;SDS011;70275;52.198;5.422;2023-06-05T07:14:16;11.82;;;10.57;;
17436;SDS011;70275;52.198;5.422;2023-06-05T07:16:45;12.93;;;11.55;;
17436;SDS011;70275;52.198;5.422;2023-06-05T07:19:16;15.75;;;10.93;;
17436;SDS011;70275;52.198;5.422;2023-06-05T07:21:46;15.13;;;10.15;;
17436;SDS011;70275;52.198;5.422;2023-06-05T07:24:15;12.15;;;10.18;;
17436;SDS011;70275;52.198;5.422;2023-06-05T07:26:47;13.68;;;11.38;;
17436;SDS011;70275;52.198;5.422;2023-06-05T07:29:17;10.30;;;9.20;;
17436;SDS011;70275;52.198;5.422;2023-06-05T07:31:46;12.30;;;10.43;;
17436;SDS011;70275;52.198;5.422;2023-06-05T07:34:17;13.77;;;10.77;;
17436;SDS011;70275;52.198;5.422;2023-06-05T07:36:46;12.50;;;10.70;;
17436;SDS011;70275;52.198;5.422;2023-06-05T07:39:18;13.90;;;10.18;;
17436;SDS011;70275;52.198;5.422;2023-06-05T07:41:50;15.27;;;10.82;;
17436;SDS011;70275;52.198;5.422;2023-06-05T07:44:20;11.88;;;10.38;;
17436;SDS011;70275;52.198;5.422;2023-06-05T07:46:50;11.38;;;10.18;;
17436;SDS011;70275;52.198;5.422;2023-06-05T07:49:20;11.82;;;10.50;;
17436;SDS011;70275;52.198;5.422;2023-06-05T07:51:49;12.82;;;11.32;;
17436;SDS011;70275;52.198;5.422;2023-06-05T07:54:18;11.75;;;10.55;;
17436;SDS011;70275;52.198;5.422;2023-06-05T07:56:48;14.05;;;10.18;;
17436;SDS011;70275;52.198;5.422;2023-06-05T07:59:22;13.18;;;10.40;;
17436;SDS011;70275;52.198;5.422;2023-06-05T08:01:53;15.13;;;10.95;;
17436;SDS011;70275;52.198;5.422;2023-06-05T08:04:22;14.88;;;11.05;;
17436;SDS011;70275;52.198;5.422;2023-06-05T08:06:53;13.88;;;11.10;;
17436;SDS011;70275;52.198;5.422;2023-06-05T08:09:22;14.77;;;10.60;;
17436;SDS011;70275;52.198;5.422;2023-06-05T08:11:53;13.40;;;10.20;;
17436;SDS011;70275;52.198;5.422;2023-06-05T08:14:22;12.80;;;9.98;;
17436;SDS011;70275;52.198;5.422;2023-06-05T08:16:51;10.45;;;9.40;;
17436;SDS011;70275;52.198;5.422;2023-06-05T08:19:24;11.38;;;10.25;;
17436;SDS011;70275;52.198;5.422;2023-06-05T08:21:53;11.57;;;9.73;;
17436;SDS011;70275;52.198;5.422;2023-06-05T08:24:22;12.07;;;9.63;;
17436;SDS011;70275;52.198;5.422;2023-06-05T08:26:56;10.55;;;8.82;;
17436;SDS011;70275;52.198;5.422;2023-06-05T08:29:25;17.15;;;10.05;;
17436;SDS011;70275;52.198;5.422;2023-06-05T08:31:55;11.77;;;10.55;;
17436;SDS011;70275;52.198;5.422;2023-06-05T08:34:24;12.35;;;9.95;;
17436;SDS011;70275;52.198;5.422;2023-06-05T08:36:53;11.85;;;10.63;;
17436;SDS011;70275;52.198;5.422;2023-06-05T08:39:24;9.80;;;8.75;;
17436;SDS011;70275;52.198;5.422;2023-06-05T08:41:59;13.10;;;10.07;;
17436;SDS011;70275;52.198;5.422;2023-06-05T08:44:31;12.32;;;9.27;;
17436;SDS011;70275;52.198;5.422;2023-06-05T08:47:01;10.90;;;9.27;;
17436;SDS011;70275;52.198;5.422;2023-06-05T08:49:33;12.50;;;9.20;;
17436;SDS011;70275;52.198;5.422;2023-06-05T08:52:09;11.07;;;9.13;;
17436;SDS011;70275;52.198;5.422;2023-06-05T08:54:40;9.18;;;8.27;;
17436;SDS011;70275;52.198;5.422;2023-06-05T08:57:12;8.38;;;7.57;;
17436;SDS011;70275;52.198;5.422;2023-06-05T08:59:42;8.73;;;7.88;;
17436;SDS011;70275;52.198;5.422;2023-06-05T09:02:11;9.77;;;8.68;;
17436;SDS011;70275;52.198;5.422;2023-06-05T09:04:40;9.80;;;8.40;;
17436;SDS011;70275;52.198;5.422;2023-06-05T09:07:10;9.48;;;8.48;;
17436;SDS011;70275;52.198;5.422;2023-06-05T09:09:40;8.18;;;7.38;;
17436;SDS011;70275;52.198;5.422;2023-06-05T09:12:13;10.27;;;8.30;;
17436;SDS011;70275;52.198;5.422;2023-06-05T09:14:42;8.07;;;7.20;;
17436;SDS011;70275;52.198;5.422;2023-06-05T09:17:12;8.35;;;7.47;;
17436;SDS011;70275;52.198;5.422;2023-06-05T09:19:42;8.65;;;7.85;;
17436;SDS011;70275;52.198;5.422;2023-06-05T09:22:13;8.88;;;7.97;;
17436;SDS011;70275;52.198;5.422;2023-06-05T09:24:42;7.57;;;6.85;;
17436;SDS011;70275;52.198;5.422;2023-06-05T09:27:16;7.55;;;6.85;;
17436;SDS011;70275;52.198;5.422;2023-06-05T09:29:45;8.90;;;6.85;;
17436;SDS011;70275;52.198;5.422;2023-06-05T09:32:16;9.55;;;7.47;;
17436;SDS011;70275;52.198;5.422;2023-06-05T09:34:54;8.00;;;7.22;;
17436;SDS011;70275;52.198;5.422;2023-06-05T09:37:32;6.85;;;6.22;;
17436;SDS011;70275;52.198;5.422;2023-06-05T09:40:02;8.57;;;6.78;;
17436;SDS011;70275;52.198;5.422;2023-06-05T09:42:36;8.02;;;6.75;;
17436;SDS011;70275;52.198;5.422;2023-06-05T09:45:06;7.38;;;5.97;;
17436;SDS011;70275;52.198;5.422;2023-06-05T09:47:36;6.95;;;6.07;;
17436;SDS011;70275;52.198;5.422;2023-06-05T09:50:05;8.85;;;6.85;;
17436;SDS011;70275;52.198;5.422;2023-06-05T09:52:49;6.85;;;5.70;;
17436;SDS011;70275;52.198;5.422;2023-06-05T09:55:20;7.07;;;6.38;;
17436;SDS011;70275;52.198;5.422;2023-06-05T09:57:56;7.20;;;6.50;;
17436;SDS011;70275;52.198;5.422;2023-06-05T10:00:28;9.18;;;7.30;;
17436;SDS011;70275;52.198;5.422;2023-06-05T10:02:58;7.68;;;6.30;;
17436;SDS011;70275;52.198;5.422;2023-06-05T10:05:31;5.95;;;5.45;;
17436;SDS011;70275;52.198;5.422;2023-06-05T10:08:04;6.72;;;5.45;;
17436;SDS011;70275;52.198;5.422;2023-06-05T10:10:34;6.35;;;5.68;;
17436;SDS011;70275;52.198;5.422;2023-06-05T10:13:07;6.18;;;5.60;;
17436;SDS011;70275;52.198;5.422;2023-06-05T10:15:38;6.38;;;5.78;;
17436;SDS011;70275;52.198;5.422;2023-06-05T10:18:09;5.45;;;4.95;;
17436;SDS011;70275;52.198;5.422;2023-06-05T10:20:38;6.90;;;5.80;;
17436;SDS011;70275;52.198;5.422;2023-06-05T10:23:07;7.10;;;4.97;;
17436;SDS011;70275;52.198;5.422;2023-06-05T10:25:37;5.82;;;4.93;;
17436;SDS011;70275;52.198;5.422;2023-06-05T10:28:22;5.47;;;4.97;;
17436;SDS011;70275;52.198;5.422;2023-06-05T10:31:18;7.05;;;5.40;;
17436;SDS011;70275;52.198;5.422;2023-06-05T10:34:07;6.45;;;5.10;;
17436;SDS011;70275;52.198;5.422;2023-06-05T10:40:15;5.72;;;5.13;;
17436;SDS011;70275;52.198;5.422;2023-06-05T10:42:45;5.45;;;4.80;;
17436;SDS011;70275;52.198;5.422;2023-06-05T10:45:29;6.60;;;4.97;;
17436;SDS011;70275;52.198;5.422;2023-06-05T10:47:59;7.72;;;4.90;;
17436;SDS011;70275;52.198;5.422;2023-06-05T10:50:28;6.20;;;4.95;;
17436;SDS011;70275;52.198;5.422;2023-06-05T10:52:58;5.88;;;4.43;;
17436;SDS011;70275;52.198;5.422;2023-06-05T10:55:39;5.95;;;4.75;;
17436;SDS011;70275;52.198;5.422;2023-06-05T10:58:13;5.20;;;4.70;;
17436;SDS011;70275;52.198;5.422;2023-06-05T11:03:57;5.93;;;5.30;;
17436;SDS011;70275;52.198;5.422;2023-06-05T11:06:27;6.30;;;5.50;;
17436;SDS011;70275;52.198;5.422;2023-06-05T11:11:58;7.55;;;5.20;;
17436;SDS011;70275;52.198;5.422;2023-06-05T11:17:31;6.78;;;5.75;;
17436;SDS011;70275;52.198;5.422;2023-06-05T11:20:02;5.28;;;4.78;;
17436;SDS011;70275;52.198;5.422;2023-06-05T11:22:45;6.38;;;5.78;;
17436;SDS011;70275;52.198;5.422;2023-06-05T11:25:37;5.47;;;4.80;;
17436;SDS011;70275;52.198;5.422;2023-06-05T11:28:06;5.13;;;4.63;;
17436;SDS011;70275;52.198;5.422;2023-06-05T11:30:38;5.30;;;4.78;;
17436;SDS011;70275;52.198;5.422;2023-06-05T11:33:12;4.60;;;4.20;;
17436;SDS011;70275;52.198;5.422;2023-06-05T11:35:43;7.63;;;5.00;;
17436;SDS011;70275;52.198;5.422;2023-06-05T11:38:15;4.57;;;4.18;;
17436;SDS011;70275;52.198;5.422;2023-06-05T11:40:47;6.85;;;5.10;;
17436;SDS011;70275;52.198;5.422;2023-06-05T11:43:16;6.00;;;5.22;;
17436;SDS011;70275;52.198;5.422;2023-06-05T11:45:48;5.70;;;5.10;;
17436;SDS011;70275;52.198;5.422;2023-06-05T11:48:22;7.07;;;5.20;;
17436;SDS011;70275;52.198;5.422;2023-06-05T11:50:53;6.68;;;4.78;;
17436;SDS011;70275;52.198;5.422;2023-06-05T11:53:25;8.98;;;5.00;;
17436;SDS011;70275;52.198;5.422;2023-06-05T11:55:55;9.75;;;5.40;;
17436;SDS011;70275;52.198;5.422;2023-06-05T11:58:35;6.82;;;4.90;;
17436;SDS011;70275;52.198;5.422;2023-06-05T12:01:07;6.78;;;5.78;;
17436;SDS011;70275;52.198;5.422;2023-06-05T12:03:42;6.45;;;4.82;;
17436;SDS011;70275;52.198;5.422;2023-06-05T12:06:12;7.43;;;4.68;;
17436;SDS011;70275;52.198;5.422;2023-06-05T12:08:43;6.28;;;5.22;;
17436;SDS011;70275;52.198;5.422;2023-06-05T12:11:19;6.63;;;5.28;;
17436;SDS011;70275;52.198;5.422;2023-06-05T12:13:51;6.53;;;5.35;;
17436;SDS011;70275;52.198;5.422;2023-06-05T12:16:29;7.82;;;5.60;;
17436;SDS011;70275;52.198;5.422;2023-06-05T12:19:03;7.68;;;5.10;;
17436;SDS011;70275;52.198;5.422;2023-06-05T12:21:40;5.97;;;5.32;;
17436;SDS011;70275;52.198;5.422;2023-06-05T12:24:11;10.48;;;5.45;;
17436;SDS011;70275;52.198;5.422;2023-06-05T12:26:50;6.22;;;5.63;;
17436;SDS011;70275;52.198;5.422;2023-06-05T12:29:23;6.97;;;5.93;;
17436;SDS011;70275;52.198;5.422;2023-06-05T12:31:56;8.65;;;6.28;;
17436;SDS011;70275;52.198;5.422;2023-06-05T12:34:42;6.65;;;5.90;;
17436;SDS011;70275;52.198;5.422;2023-06-05T12:37:22;6.57;;;5.65;;
17436;SDS011;70275;52.198;5.422;2023-06-05T12:39:52;6.10;;;5.60;;
17436;SDS011;70275;52.198;5.422;2023-06-05T12:42:23;6.07;;;5.47;;
17436;SDS011;70275;52.198;5.422;2023-06-05T12:44:52;8.00;;;5.65;;
17436;SDS011;70275;52.198;5.422;2023-06-05T12:47:21;6.32;;;5.57;;
17436;SDS011;70275;52.198;5.422;2023-06-05T12:49:53;7.60;;;6.13;;
17436;SDS011;70275;52.198;5.422;2023-06-05T12:52:23;6.25;;;5.63;;
17436;SDS011;70275;52.198;5.422;2023-06-05T12:54:53;7.18;;;5.82;;
17436;SDS011;70275;52.198;5.422;2023-06-05T12:57:23;6.75;;;6.15;;
17436;SDS011;70275;52.198;5.422;2023-06-05T12:59:53;6.28;;;5.68;;
17436;SDS011;70275;52.198;5.422;2023-06-05T13:02:22;8.77;;;5.80;;
17436;SDS011;70275;52.198;5.422;2023-06-05T13:04:56;7.53;;;5.93;;
17436;SDS011;70275;52.198;5.422;2023-06-05T13:07:25;6.90;;;6.03;;
17436;SDS011;70275;52.198;5.422;2023-06-05T13:09:54;7.00;;;5.95;;
17436;SDS011;70275;52.198;5.422;2023-06-05T13:12:23;7.18;;;6.47;;
17436;SDS011;70275;52.198;5.422;2023-06-05T13:14:52;7.47;;;6.07;;
17436;SDS011;70275;52.198;5.422;2023-06-05T13:17:20;6.57;;;5.38;;
17436;SDS011;70275;52.198;5.422;2023-06-05T13:19:50;7.78;;;6.05;;
17436;SDS011;70275;52.198;5.422;2023-06-05T13:22:21;6.82;;;5.70;;
17436;SDS011;70275;52.198;5.422;2023-06-05T13:24:50;7.47;;;6.47;;
17436;SDS011;70275;52.198;5.422;2023-06-05T13:27:19;8.30;;;6.68;;
17436;SDS011;70275;52.198;5.422;2023-06-05T13:29:48;7.93;;;6.07;;
17436;SDS011;70275;52.198;5.422;2023-06-05T13:32:17;7.18;;;6.53;;
17436;SDS011;70275;52.198;5.422;2023-06-05T13:34:47;7.47;;;6.03;;
17436;SDS011;70275;52.198;5.422;2023-06-05T13:37:16;7.07;;;6.30;;
17436;SDS011;70275;52.198;5.422;2023-06-05T13:39:47;7.47;;;6.32;;
17436;SDS011;70275;52.198;5.422;2023-06-05T13:42:16;6.93;;;5.93;;
17436;SDS011;70275;52.198;5.422;2023-06-05T13:44:46;8.73;;;5.97;;
17436;SDS011;70275;52.198;5.422;2023-06-05T13:47:15;9.63;;;6.82;;
17436;SDS011;70275;52.198;5.422;2023-06-05T13:49:44;7.10;;;5.97;;
17436;SDS011;70275;52.198;5.422;2023-06-05T13:52:12;6.68;;;6.03;;
17436;SDS011;70275;52.198;5.422;2023-06-05T13:54:41;6.18;;;5.60;;
17436;SDS011;70275;52.198;5.422;2023-06-05T13:57:13;6.25;;;5.65;;
17436;SDS011;70275;52.198;5.422;2023-06-05T13:59:43;8.60;;;6.75;;
17436;SDS011;70275;52.198;5.422;2023-06-05T14:02:13;7.40;;;6.60;;
17436;SDS011;70275;52.198;5.422;2023-06-05T14:04:41;7.47;;;6.47;;
17436;SDS011;70275;52.198;5.422;2023-06-05T14:07:10;8.65;;;7.60;;
17436;SDS011;70275;52.198;5.422;2023-06-05T14:09:39;7.55;;;6.75;;
17436;SDS011;70275;52.198;5.422;2023-06-05T14:12:09;9.52;;;6.38;;
17436;SDS011;70275;52.198;5.422;2023-06-05T14:14:41;8.20;;;6.32;;
17436;SDS011;70275;52.198;5.422;2023-06-05T14:17:10;8.35;;;6.68;;
17436;SDS011;70275;52.198;5.422;2023-06-05T14:19:39;8.18;;;6.53;;
17436;SDS011;70275;52.198;5.422;2023-06-05T14:22:08;10.05;;;7.13;;
17436;SDS011;70275;52.198;5.422;2023-06-05T14:24:37;7.60;;;6.57;;
17436;SDS011;70275;52.198;5.422;2023-06-05T14:27:07;7.35;;;6.65;;
17436;SDS011;70275;52.198;5.422;2023-06-05T14:29:41;7.93;;;6.47;;
17436;SDS011;70275;52.198;5.422;2023-06-05T14:32:09;10.50;;;6.97;;
17436;SDS011;70275;52.198;5.422;2023-06-05T14:34:38;7.32;;;6.53;;
17436;SDS011;70275;52.198;5.422;2023-06-05T14:37:07;8.55;;;7.10;;
17436;SDS011;70275;52.198;5.422;2023-06-05T14:39:36;6.95;;;6.25;;
17436;SDS011;70275;52.198;5.422;2023-06-05T14:42:06;7.00;;;6.28;;
17436;SDS011;70275;52.198;5.422;2023-06-05T14:44:35;7.13;;;6.35;;
17436;SDS011;70275;52.198;5.422;2023-06-05T14:47:07;7.70;;;6.90;;
17436;SDS011;70275;52.198;5.422;2023-06-05T14:49:36;7.78;;;5.85;;
17436;SDS011;70275;52.198;5.422;2023-06-05T14:52:05;8.13;;;7.32;;
17436;SDS011;70275;52.198;5.422;2023-06-05T14:54:34;6.93;;;6.22;;
17436;SDS011;70275;52.198;5.422;2023-06-05T14:57:03;7.30;;;6.38;;
17436;SDS011;70275;52.198;5.422;2023-06-05T14:59:33;7.13;;;6.45;;
17436;SDS011;70275;52.198;5.422;2023-06-05T15:02:03;6.97;;;6.28;;
17436;SDS011;70275;52.198;5.422;2023-06-05T15:04:35;7.60;;;6.63;;
17436;SDS011;70275;52.198;5.422;2023-06-05T15:07:04;7.07;;;6.25;;